sensor_id;sensor_type;location;lat;lon;timestamp;P1;durP1;ratioP1;P2;durP2;ratioP2
38318;SDS011;24121;53.536;10.224;2022-07-22T08:27:07;14.05;;;5.30;;
38318;SDS011;24121;53.536;10.224;2022-07-22T08:29:33;16.00;;;5.38;;
38318;SDS011;24121;53.536;10.224;2022-07-22T08:31:58;13.30;;;4.15;;
38318;SDS011;24121;53.536;10.224;2022-07-22T08:34:23;14.52;;;5.13;;
38318;SDS011;24121;53.536;10.224;2022-07-22T08:36:49;16.60;;;5.60;;
38318;SDS011;24121;53.536;10.224;2022-07-22T08:39:14;13.70;;;4.95;;
38318;SDS011;24121;53.536;10.224;2022-07-22T08:41:39;14.82;;;4.75;;
38318;SDS011;24121;53.536;10.224;2022-07-22T08:46:35;12.18;;;4.05;;
38318;SDS011;24121;53.536;10.224;2022-07-22T08:49:01;13.05;;;3.92;;
38318;SDS011;24121;53.536;10.224;2022-07-22T08:51:27;14.93;;;3.95;;
38318;SDS011;24121;53.536;10.224;2022-07-22T08:53:53;11.10;;;3.53;;
38318;SDS011;24121;53.536;10.224;2022-07-22T08:56:18;13.55;;;3.95;;
38318;SDS011;24121;53.536;10.224;2022-07-22T08:58:44;10.15;;;3.25;;
38318;SDS011;24121;53.536;10.224;2022-07-22T09:01:10;11.82;;;3.33;;
38318;SDS011;24121;53.536;10.224;2022-07-22T09:03:49;14.63;;;4.15;;
38318;SDS011;24121;53.536;10.224;2022-07-22T09:06:21;12.65;;;3.67;;
38318;SDS011;24121;53.536;10.224;2022-07-22T09:09:01;12.57;;;4.22;;
38318;SDS011;24121;53.536;10.224;2022-07-22T09:11:28;7.60;;;2.70;;
38318;SDS011;24121;53.536;10.224;2022-07-22T09:13:55;8.98;;;3.10;;
38318;SDS011;24121;53.536;10.224;2022-07-22T09:17:04;7.60;;;3.13;;
38318;SDS011;24121;53.536;10.224;2022-07-22T09:19:12;13.05;;;3.60;;
38318;SDS011;24121;53.536;10.224;2022-07-22T09:21:42;8.15;;;2.65;;
38318;SDS011;24121;53.536;10.224;2022-07-22T09:24:09;12.90;;;3.90;;
38318;SDS011;24121;53.536;10.224;2022-07-22T09:26:53;7.38;;;2.67;;
38318;SDS011;24121;53.536;10.224;2022-07-22T09:29:19;8.98;;;3.63;;
38318;SDS011;24121;53.536;10.224;2022-07-22T09:31:49;11.55;;;3.35;;
38318;SDS011;24121;53.536;10.224;2022-07-22T09:34:25;10.50;;;3.05;;
38318;SDS011;24121;53.536;10.224;2022-07-22T09:36:56;8.82;;;2.95;;
38318;SDS011;24121;53.536;10.224;2022-07-22T09:39:26;10.20;;;3.17;;
38318;SDS011;24121;53.536;10.224;2022-07-22T09:42:05;10.43;;;3.03;;
38318;SDS011;24121;53.536;10.224;2022-07-22T09:44:31;6.50;;;2.07;;
38318;SDS011;24121;53.536;10.224;2022-07-22T09:46:57;9.13;;;2.30;;
38318;SDS011;24121;53.536;10.224;2022-07-22T09:49:32;9.35;;;2.50;;
38318;SDS011;24121;53.536;10.224;2022-07-22T09:51:58;8.32;;;2.78;;
38318;SDS011;24121;53.536;10.224;2022-07-22T09:54:25;6.05;;;2.10;;
38318;SDS011;24121;53.536;10.224;2022-07-22T09:56:50;6.15;;;2.10;;
38318;SDS011;24121;53.536;10.224;2022-07-22T09:59:15;7.38;;;2.72;;
38318;SDS011;24121;53.536;10.224;2022-07-22T10:01:41;8.02;;;2.08;;
38318;SDS011;24121;53.536;10.224;2022-07-22T10:04:07;7.65;;;2.67;;
38318;SDS011;24121;53.536;10.224;2022-07-22T10:06:33;8.98;;;2.92;;
38318;SDS011;24121;53.536;10.224;2022-07-22T10:08:59;7.43;;;2.45;;
38318;SDS011;24121;53.536;10.224;2022-07-22T10:11:24;10.32;;;2.70;;
38318;SDS011;24121;53.536;10.224;2022-07-22T10:13:50;8.20;;;2.60;;
38318;SDS011;24121;53.536;10.224;2022-07-22T10:16:15;8.73;;;3.20;;
38318;SDS011;24121;53.536;10.224;2022-07-22T10:18:45;7.40;;;3.05;;
38318;SDS011;24121;53.536;10.224;2022-07-22T10:21:11;6.20;;;2.72;;
38318;SDS011;24121;53.536;10.224;2022-07-22T10:23:42;9.25;;;3.28;;
38318;SDS011;24121;53.536;10.224;2022-07-22T10:26:52;7.32;;;1.98;;
38318;SDS011;24121;53.536;10.224;2022-07-22T10:31:52;6.07;;;2.55;;
38318;SDS011;24121;53.536;10.224;2022-07-22T10:45:32;8.50;;;2.55;;
38318;SDS011;24121;53.536;10.224;2022-07-22T10:47:59;9.00;;;2.55;;
38318;SDS011;24121;53.536;10.224;2022-07-22T10:55:39;7.25;;;2.17;;
38318;SDS011;24121;53.536;10.224;2022-07-22T11:00:58;6.80;;;2.05;;
38318;SDS011;24121;53.536;10.224;2022-07-22T11:03:24;5.97;;;2.08;;
38318;SDS011;24121;53.536;10.224;2022-07-22T11:05:50;8.77;;;1.98;;
38318;SDS011;24121;53.536;10.224;2022-07-22T11:08:16;6.30;;;2.13;;
38318;SDS011;24121;53.536;10.224;2022-07-22T11:10:50;8.60;;;2.38;;
38318;SDS011;24121;53.536;10.224;2022-07-22T11:13:31;9.30;;;1.92;;
38318;SDS011;24121;53.536;10.224;2022-07-22T11:16:12;6.72;;;2.30;;
38318;SDS011;24121;53.536;10.224;2022-07-22T11:18:53;7.60;;;2.25;;
38318;SDS011;24121;53.536;10.224;2022-07-22T11:21:27;5.47;;;2.45;;
38318;SDS011;24121;53.536;10.224;2022-07-22T11:23:55;7.90;;;2.10;;
38318;SDS011;24121;53.536;10.224;2022-07-22T11:26:39;9.63;;;2.40;;
38318;SDS011;24121;53.536;10.224;2022-07-22T11:29:06;9.20;;;2.60;;
38318;SDS011;24121;53.536;10.224;2022-07-22T11:31:32;7.93;;;2.40;;
38318;SDS011;24121;53.536;10.224;2022-07-22T11:34:05;8.10;;;2.38;;
38318;SDS011;24121;53.536;10.224;2022-07-22T11:36:35;5.13;;;1.92;;
38318;SDS011;24121;53.536;10.224;2022-07-22T11:39:02;7.90;;;2.53;;
38318;SDS011;24121;53.536;10.224;2022-07-22T11:41:28;5.80;;;2.30;;
38318;SDS011;24121;53.536;10.224;2022-07-22T11:43:55;9.15;;;2.90;;
38318;SDS011;24121;53.536;10.224;2022-07-22T11:46:20;9.75;;;2.38;;
38318;SDS011;24121;53.536;10.224;2022-07-22T11:48:46;7.22;;;2.10;;
38318;SDS011;24121;53.536;10.224;2022-07-22T11:51:12;6.53;;;2.35;;
38318;SDS011;24121;53.536;10.224;2022-07-22T11:53:39;5.93;;;2.00;;
38318;SDS011;24121;53.536;10.224;2022-07-22T11:56:06;7.00;;;1.90;;
38318;SDS011;24121;53.536;10.224;2022-07-22T11:58:33;5.45;;;1.60;;
38318;SDS011;24121;53.536;10.224;2022-07-22T12:01:02;6.20;;;1.83;;
38318;SDS011;24121;53.536;10.224;2022-07-22T12:03:29;8.02;;;1.83;;
38318;SDS011;24121;53.536;10.224;2022-07-22T12:05:54;6.18;;;2.30;;
38318;SDS011;24121;53.536;10.224;2022-07-22T12:08:20;4.80;;;2.25;;
38318;SDS011;24121;53.536;10.224;2022-07-22T12:10:45;4.15;;;1.98;;
38318;SDS011;24121;53.536;10.224;2022-07-22T12:13:11;8.02;;;2.40;;
38318;SDS011;24121;53.536;10.224;2022-07-22T12:15:37;6.90;;;2.10;;
38318;SDS011;24121;53.536;10.224;2022-07-22T12:18:20;7.70;;;2.10;;
38318;SDS011;24121;53.536;10.224;2022-07-22T12:20:47;9.07;;;2.08;;
38318;SDS011;24121;53.536;10.224;2022-07-22T12:23:13;12.93;;;2.17;;
38318;SDS011;24121;53.536;10.224;2022-07-22T12:25:55;8.25;;;2.20;;
38318;SDS011;24121;53.536;10.224;2022-07-22T12:28:22;7.75;;;2.30;;
38318;SDS011;24121;53.536;10.224;2022-07-22T12:30:51;8.48;;;1.85;;
38318;SDS011;24121;53.536;10.224;2022-07-22T12:35:43;8.38;;;2.10;;
38318;SDS011;24121;53.536;10.224;2022-07-22T12:38:10;6.10;;;1.85;;
38318;SDS011;24121;53.536;10.224;2022-07-22T12:40:35;8.77;;;1.90;;
38318;SDS011;24121;53.536;10.224;2022-07-22T12:43:07;6.35;;;1.70;;
38318;SDS011;24121;53.536;10.224;2022-07-22T12:45:37;6.40;;;2.42;;
38318;SDS011;24121;53.536;10.224;2022-07-22T12:53:23;5.13;;;1.95;;
38318;SDS011;24121;53.536;10.224;2022-07-22T12:55:53;6.97;;;2.20;;
38318;SDS011;24121;53.536;10.224;2022-07-22T12:58:20;7.82;;;2.60;;
38318;SDS011;24121;53.536;10.224;2022-07-22T13:00:47;5.88;;;2.00;;
38318;SDS011;24121;53.536;10.224;2022-07-22T13:03:14;6.53;;;2.08;;
38318;SDS011;24121;53.536;10.224;2022-07-22T13:05:40;4.85;;;1.70;;
38318;SDS011;24121;53.536;10.224;2022-07-22T13:08:06;4.88;;;1.80;;
38318;SDS011;24121;53.536;10.224;2022-07-22T13:10:31;6.25;;;1.90;;
38318;SDS011;24121;53.536;10.224;2022-07-22T13:12:57;6.40;;;1.83;;
38318;SDS011;24121;53.536;10.224;2022-07-22T13:15:22;6.45;;;1.67;;
38318;SDS011;24121;53.536;10.224;2022-07-22T13:17:48;5.07;;;1.58;;
38318;SDS011;24121;53.536;10.224;2022-07-22T13:20:15;4.78;;;1.73;;
38318;SDS011;24121;53.536;10.224;2022-07-22T13:22:42;6.10;;;1.70;;
38318;SDS011;24121;53.536;10.224;2022-07-22T13:25:10;5.32;;;1.98;;
38318;SDS011;24121;53.536;10.224;2022-07-22T13:27:35;4.68;;;1.83;;
38318;SDS011;24121;53.536;10.224;2022-07-22T13:30:01;4.68;;;2.00;;
38318;SDS011;24121;53.536;10.224;2022-07-22T13:32:27;7.03;;;1.98;;
38318;SDS011;24121;53.536;10.224;2022-07-22T13:34:52;7.50;;;1.90;;
38318;SDS011;24121;53.536;10.224;2022-07-22T13:37:18;4.15;;;1.88;;
38318;SDS011;24121;53.536;10.224;2022-07-22T13:39:45;4.80;;;1.95;;
38318;SDS011;24121;53.536;10.224;2022-07-22T13:42:12;4.93;;;1.85;;
38318;SDS011;24121;53.536;10.224;2022-07-22T13:44:38;5.47;;;1.92;;
38318;SDS011;24121;53.536;10.224;2022-07-22T13:47:03;5.50;;;1.90;;
38318;SDS011;24121;53.536;10.224;2022-07-22T13:49:29;6.22;;;1.95;;
38318;SDS011;24121;53.536;10.224;2022-07-22T13:51:54;6.43;;;1.60;;
38318;SDS011;24121;53.536;10.224;2022-07-22T13:54:20;5.85;;;1.77;;
38318;SDS011;24121;53.536;10.224;2022-07-22T13:56:45;5.68;;;2.10;;
38318;SDS011;24121;53.536;10.224;2022-07-22T13:59:14;6.00;;;2.00;;
38318;SDS011;24121;53.536;10.224;2022-07-22T14:01:41;4.88;;;2.45;;
38318;SDS011;24121;53.536;10.224;2022-07-22T14:04:06;4.60;;;2.20;;
38318;SDS011;24121;53.536;10.224;2022-07-22T14:06:32;5.63;;;2.00;;
38318;SDS011;24121;53.536;10.224;2022-07-22T14:08:58;5.35;;;1.95;;
38318;SDS011;24121;53.536;10.224;2022-07-22T14:11:23;4.13;;;1.92;;
38318;SDS011;24121;53.536;10.224;2022-07-22T14:13:49;5.60;;;2.00;;
38318;SDS011;24121;53.536;10.224;2022-07-22T14:16:14;6.28;;;2.50;;
38318;SDS011;24121;53.536;10.224;2022-07-22T14:18:58;10.23;;;2.83;;
38318;SDS011;24121;53.536;10.224;2022-07-22T14:21:24;5.55;;;2.25;;
38318;SDS011;24121;53.536;10.224;2022-07-22T14:23:49;6.38;;;2.25;;
38318;SDS011;24121;53.536;10.224;2022-07-22T14:26:15;8.10;;;2.50;;
38318;SDS011;24121;53.536;10.224;2022-07-22T14:28:40;8.05;;;2.35;;
38318;SDS011;24121;53.536;10.224;2022-07-22T14:31:05;6.00;;;2.35;;
38318;SDS011;24121;53.536;10.224;2022-07-22T14:33:31;4.20;;;1.98;;
38318;SDS011;24121;53.536;10.224;2022-07-22T14:35:56;5.95;;;1.73;;
38318;SDS011;24121;53.536;10.224;2022-07-22T14:38:21;3.92;;;2.03;;
38318;SDS011;24121;53.536;10.224;2022-07-22T14:40:47;5.30;;;1.83;;
38318;SDS011;24121;53.536;10.224;2022-07-22T14:43:12;3.13;;;1.45;;
38318;SDS011;24121;53.536;10.224;2022-07-22T14:45:37;3.80;;;1.48;;
38318;SDS011;24121;53.536;10.224;2022-07-22T14:48:03;4.25;;;1.42;;
38318;SDS011;24121;53.536;10.224;2022-07-22T14:50:28;4.93;;;1.63;;
38318;SDS011;24121;53.536;10.224;2022-07-22T14:52:54;4.53;;;1.60;;
38318;SDS011;24121;53.536;10.224;2022-07-22T14:55:19;5.18;;;2.00;;
38318;SDS011;24121;53.536;10.224;2022-07-22T14:57:44;5.90;;;1.70;;
38318;SDS011;24121;53.536;10.224;2022-07-22T15:00:10;6.07;;;1.70;;
38318;SDS011;24121;53.536;10.224;2022-07-22T15:02:35;5.88;;;1.83;;
38318;SDS011;24121;53.536;10.224;2022-07-22T15:05:00;5.32;;;1.90;;
38318;SDS011;24121;53.536;10.224;2022-07-22T15:07:26;5.97;;;1.80;;
38318;SDS011;24121;53.536;10.224;2022-07-22T15:09:51;6.47;;;1.95;;
38318;SDS011;24121;53.536;10.224;2022-07-22T15:12:16;4.00;;;1.80;;
38318;SDS011;24121;53.536;10.224;2022-07-22T15:14:42;5.70;;;1.70;;
38318;SDS011;24121;53.536;10.224;2022-07-22T15:17:07;3.83;;;1.40;;
38318;SDS011;24121;53.536;10.224;2022-07-22T15:19:33;8.57;;;2.22;;
38318;SDS011;24121;53.536;10.224;2022-07-22T15:21:58;6.40;;;2.20;;
38318;SDS011;24121;53.536;10.224;2022-07-22T15:24:23;7.95;;;2.15;;
38318;SDS011;24121;53.536;10.224;2022-07-22T15:26:49;5.57;;;1.80;;
38318;SDS011;24121;53.536;10.224;2022-07-22T15:29:14;5.78;;;2.13;;
38318;SDS011;24121;53.536;10.224;2022-07-22T15:31:40;6.57;;;1.75;;
38318;SDS011;24121;53.536;10.224;2022-07-22T15:34:05;6.30;;;1.50;;
38318;SDS011;24121;53.536;10.224;2022-07-22T15:36:31;5.97;;;1.38;;
38318;SDS011;24121;53.536;10.224;2022-07-22T15:38:56;5.03;;;1.52;;
38318;SDS011;24121;53.536;10.224;2022-07-22T15:41:21;4.90;;;1.50;;
38318;SDS011;24121;53.536;10.224;2022-07-22T15:43:47;4.70;;;1.48;;
38318;SDS011;24121;53.536;10.224;2022-07-22T15:46:12;5.32;;;1.60;;
38318;SDS011;24121;53.536;10.224;2022-07-22T15:48:39;3.13;;;1.50;;
38318;SDS011;24121;53.536;10.224;2022-07-22T15:51:05;5.20;;;1.90;;
38318;SDS011;24121;53.536;10.224;2022-07-22T15:53:31;4.10;;;1.55;;
38318;SDS011;24121;53.536;10.224;2022-07-22T15:55:56;5.55;;;1.77;;
38318;SDS011;24121;53.536;10.224;2022-07-22T15:58:22;4.60;;;1.70;;
38318;SDS011;24121;53.536;10.224;2022-07-22T16:01:06;3.88;;;1.65;;
38318;SDS011;24121;53.536;10.224;2022-07-22T16:03:31;3.70;;;1.77;;
38318;SDS011;24121;53.536;10.224;2022-07-22T16:05:56;3.85;;;1.80;;
38318;SDS011;24121;53.536;10.224;2022-07-22T16:08:21;5.38;;;1.75;;
38318;SDS011;24121;53.536;10.224;2022-07-22T16:10:47;4.03;;;1.83;;
38318;SDS011;24121;53.536;10.224;2022-07-22T16:13:12;3.15;;;1.52;;
38318;SDS011;24121;53.536;10.224;2022-07-22T16:15:38;7.38;;;1.92;;
38318;SDS011;24121;53.536;10.224;2022-07-22T16:18:03;5.75;;;2.17;;
38318;SDS011;24121;53.536;10.224;2022-07-22T16:20:28;6.28;;;2.95;;
38318;SDS011;24121;53.536;10.224;2022-07-22T16:22:54;6.63;;;3.03;;
38318;SDS011;24121;53.536;10.224;2022-07-22T16:25:19;4.60;;;3.75;;
38318;SDS011;24121;53.536;10.224;2022-07-22T16:27:45;5.55;;;3.15;;
38318;SDS011;24121;53.536;10.224;2022-07-22T16:30:10;5.72;;;2.72;;
38318;SDS011;24121;53.536;10.224;2022-07-22T16:32:36;5.60;;;2.00;;
38318;SDS011;24121;53.536;10.224;2022-07-22T16:35:02;4.03;;;1.90;;
38318;SDS011;24121;53.536;10.224;2022-07-22T16:37:28;5.15;;;2.00;;
38318;SDS011;24121;53.536;10.224;2022-07-22T16:39:53;5.90;;;2.45;;
38318;SDS011;24121;53.536;10.224;2022-07-22T16:42:19;4.63;;;2.42;;
38318;SDS011;24121;53.536;10.224;2022-07-22T16:44:45;7.43;;;2.00;;
38318;SDS011;24121;53.536;10.224;2022-07-22T16:47:10;3.53;;;1.50;;
38318;SDS011;24121;53.536;10.224;2022-07-22T16:49:36;5.38;;;1.63;;
38318;SDS011;24121;53.536;10.224;2022-07-22T16:52:01;5.78;;;1.75;;
38318;SDS011;24121;53.536;10.224;2022-07-22T16:54:27;5.72;;;1.80;;
38318;SDS011;24121;53.536;10.224;2022-07-22T16:56:52;3.58;;;2.10;;
38318;SDS011;24121;53.536;10.224;2022-07-22T16:59:17;4.05;;;2.30;;
38318;SDS011;24121;53.536;10.224;2022-07-22T17:01:42;5.70;;;2.33;;
38318;SDS011;24121;53.536;10.224;2022-07-22T17:04:08;3.28;;;2.30;;
38318;SDS011;24121;53.536;10.224;2022-07-22T17:06:33;6.60;;;3.10;;
38318;SDS011;24121;53.536;10.224;2022-07-22T17:08:58;3.05;;;2.30;;
38318;SDS011;24121;53.536;10.224;2022-07-22T17:11:24;4.60;;;2.08;;
38318;SDS011;24121;53.536;10.224;2022-07-22T17:13:49;4.80;;;2.03;;
38318;SDS011;24121;53.536;10.224;2022-07-22T17:16:16;2.13;;;1.60;;
38318;SDS011;24121;53.536;10.224;2022-07-22T17:18:41;3.20;;;1.88;;
38318;SDS011;24121;53.536;10.224;2022-07-22T17:21:07;4.70;;;1.70;;
38318;SDS011;24121;53.536;10.224;2022-07-22T17:23:32;6.50;;;2.25;;
38318;SDS011;24121;53.536;10.224;2022-07-22T17:25:58;3.72;;;1.65;;
38318;SDS011;24121;53.536;10.224;2022-07-22T17:28:23;6.72;;;1.63;;
38318;SDS011;24121;53.536;10.224;2022-07-22T17:30:49;6.03;;;1.80;;
38318;SDS011;24121;53.536;10.224;2022-07-22T17:33:14;3.70;;;1.75;;
38318;SDS011;24121;53.536;10.224;2022-07-22T17:35:39;4.57;;;1.90;;
38318;SDS011;24121;53.536;10.224;2022-07-22T17:38:07;4.03;;;1.65;;
38318;SDS011;24121;53.536;10.224;2022-07-22T17:40:33;3.20;;;1.50;;
38318;SDS011;24121;53.536;10.224;2022-07-22T17:42:58;5.15;;;1.70;;
38318;SDS011;24121;53.536;10.224;2022-07-22T17:45:24;4.75;;;1.55;;
38318;SDS011;24121;53.536;10.224;2022-07-22T17:47:49;4.20;;;1.48;;
38318;SDS011;24121;53.536;10.224;2022-07-22T17:50:14;5.45;;;1.52;;
38318;SDS011;24121;53.536;10.224;2022-07-22T17:52:39;4.60;;;1.52;;
38318;SDS011;24121;53.536;10.224;2022-07-22T17:55:05;5.03;;;1.75;;
38318;SDS011;24121;53.536;10.224;2022-07-22T17:57:31;3.80;;;1.30;;
38318;SDS011;24121;53.536;10.224;2022-07-22T17:59:56;3.65;;;1.40;;
38318;SDS011;24121;53.536;10.224;2022-07-22T18:02:21;3.85;;;1.50;;
38318;SDS011;24121;53.536;10.224;2022-07-22T18:04:47;4.53;;;1.50;;
38318;SDS011;24121;53.536;10.224;2022-07-22T18:07:12;6.57;;;1.70;;
38318;SDS011;24121;53.536;10.224;2022-07-22T18:09:37;5.18;;;1.80;;
38318;SDS011;24121;53.536;10.224;2022-07-22T18:12:03;3.45;;;1.40;;
38318;SDS011;24121;53.536;10.224;2022-07-22T18:14:28;9.23;;;1.85;;
38318;SDS011;24121;53.536;10.224;2022-07-22T18:16:53;4.78;;;1.30;;
38318;SDS011;24121;53.536;10.224;2022-07-22T18:19:19;4.95;;;1.70;;
38318;SDS011;24121;53.536;10.224;2022-07-22T18:21:44;3.97;;;1.70;;
38318;SDS011;24121;53.536;10.224;2022-07-22T18:24:09;2.92;;;1.83;;
38318;SDS011;24121;53.536;10.224;2022-07-22T18:26:35;4.22;;;1.33;;
38318;SDS011;24121;53.536;10.224;2022-07-22T18:29:00;5.20;;;1.52;;
38318;SDS011;24121;53.536;10.224;2022-07-22T18:31:25;7.40;;;1.55;;
38318;SDS011;24121;53.536;10.224;2022-07-22T18:33:51;3.83;;;1.60;;
38318;SDS011;24121;53.536;10.224;2022-07-22T18:36:16;5.38;;;1.42;;
38318;SDS011;24121;53.536;10.224;2022-07-22T18:38:42;3.63;;;1.67;;
38318;SDS011;24121;53.536;10.224;2022-07-22T18:41:07;4.20;;;1.35;;
38318;SDS011;24121;53.536;10.224;2022-07-22T18:43:33;4.22;;;1.70;;
38318;SDS011;24121;53.536;10.224;2022-07-22T18:45:58;7.10;;;1.77;;
38318;SDS011;24121;53.536;10.224;2022-07-22T18:48:25;4.22;;;1.63;;
38318;SDS011;24121;53.536;10.224;2022-07-22T18:50:51;4.80;;;1.42;;
38318;SDS011;24121;53.536;10.224;2022-07-22T18:53:16;6.00;;;2.08;;
38318;SDS011;24121;53.536;10.224;2022-07-22T18:55:42;7.32;;;1.60;;
38318;SDS011;24121;53.536;10.224;2022-07-22T18:58:07;6.80;;;1.90;;
38318;SDS011;24121;53.536;10.224;2022-07-22T19:00:33;6.30;;;1.80;;
38318;SDS011;24121;53.536;10.224;2022-07-22T19:03:00;6.03;;;1.70;;
38318;SDS011;24121;53.536;10.224;2022-07-22T19:05:25;2.80;;;1.15;;
38318;SDS011;24121;53.536;10.224;2022-07-22T19:07:51;7.43;;;1.63;;
38318;SDS011;24121;53.536;10.224;2022-07-22T19:10:16;5.32;;;1.52;;
38318;SDS011;24121;53.536;10.224;2022-07-22T19:12:41;5.32;;;1.33;;
38318;SDS011;24121;53.536;10.224;2022-07-22T19:15:07;4.82;;;1.60;;
38318;SDS011;24121;53.536;10.224;2022-07-22T19:17:33;4.15;;;1.65;;
38318;SDS011;24121;53.536;10.224;2022-07-22T19:19:58;3.22;;;1.20;;
38318;SDS011;24121;53.536;10.224;2022-07-22T19:22:23;5.85;;;1.30;;
38318;SDS011;24121;53.536;10.224;2022-07-22T19:24:49;3.08;;;1.35;;
38318;SDS011;24121;53.536;10.224;2022-07-22T19:27:14;5.90;;;1.50;;
38318;SDS011;24121;53.536;10.224;2022-07-22T19:29:40;5.32;;;1.60;;
38318;SDS011;24121;53.536;10.224;2022-07-22T19:32:05;4.70;;;1.63;;
38318;SDS011;24121;53.536;10.224;2022-07-22T19:34:30;3.17;;;1.10;;
38318;SDS011;24121;53.536;10.224;2022-07-22T19:36:56;3.45;;;1.33;;
38318;SDS011;24121;53.536;10.224;2022-07-22T19:39:21;2.30;;;1.27;;
38318;SDS011;24121;53.536;10.224;2022-07-22T19:41:46;4.55;;;1.30;;
38318;SDS011;24121;53.536;10.224;2022-07-22T19:44:12;3.83;;;1.17;;
38318;SDS011;24121;53.536;10.224;2022-07-22T19:46:37;5.47;;;1.65;;
38318;SDS011;24121;53.536;10.224;2022-07-22T19:49:02;3.08;;;1.38;;
38318;SDS011;24121;53.536;10.224;2022-07-22T19:51:28;4.53;;;1.35;;
38318;SDS011;24121;53.536;10.224;2022-07-22T19:53:54;4.88;;;1.15;;
38318;SDS011;24121;53.536;10.224;2022-07-22T19:56:19;7.28;;;1.70;;
38318;SDS011;24121;53.536;10.224;2022-07-22T19:58:45;3.80;;;1.20;;
38318;SDS011;24121;53.536;10.224;2022-07-22T20:01:10;4.78;;;1.50;;
38318;SDS011;24121;53.536;10.224;2022-07-22T20:03:36;3.58;;;1.33;;
38318;SDS011;24121;53.536;10.224;2022-07-22T20:06:01;3.70;;;1.10;;
38318;SDS011;24121;53.536;10.224;2022-07-22T20:08:29;3.88;;;1.33;;
38318;SDS011;24121;53.536;10.224;2022-07-22T20:10:55;2.72;;;1.13;;
38318;SDS011;24121;53.536;10.224;2022-07-22T20:13:20;2.75;;;1.40;;
38318;SDS011;24121;53.536;10.224;2022-07-22T20:15:45;6.40;;;1.20;;
38318;SDS011;24121;53.536;10.224;2022-07-22T20:18:11;5.18;;;1.48;;
38318;SDS011;24121;53.536;10.224;2022-07-22T20:20:36;3.53;;;1.50;;
38318;SDS011;24121;53.536;10.224;2022-07-22T20:23:03;6.30;;;1.70;;
38318;SDS011;24121;53.536;10.224;2022-07-22T20:25:28;3.60;;;1.40;;
38318;SDS011;24121;53.536;10.224;2022-07-22T20:27:53;4.22;;;1.25;;
38318;SDS011;24121;53.536;10.224;2022-07-22T20:30:19;5.50;;;1.50;;
38318;SDS011;24121;53.536;10.224;2022-07-22T20:32:44;3.63;;;1.27;;
38318;SDS011;24121;53.536;10.224;2022-07-22T20:35:09;3.33;;;1.08;;
38318;SDS011;24121;53.536;10.224;2022-07-22T20:37:35;4.65;;;1.10;;
38318;SDS011;24121;53.536;10.224;2022-07-22T20:40:01;2.85;;;1.10;;
38318;SDS011;24121;53.536;10.224;2022-07-22T20:42:26;3.35;;;1.15;;
38318;SDS011;24121;53.536;10.224;2022-07-22T20:44:52;2.30;;;0.98;;
38318;SDS011;24121;53.536;10.224;2022-07-22T20:47:17;4.07;;;1.33;;
38318;SDS011;24121;53.536;10.224;2022-07-22T20:49:42;3.58;;;1.27;;
38318;SDS011;24121;53.536;10.224;2022-07-22T20:52:07;11.30;;;3.58;;
38318;SDS011;24121;53.536;10.224;2022-07-22T20:54:33;3.10;;;1.35;;
38318;SDS011;24121;53.536;10.224;2022-07-22T20:56:58;5.90;;;1.10;;
38318;SDS011;24121;53.536;10.224;2022-07-22T20:59:24;5.20;;;1.23;;
38318;SDS011;24121;53.536;10.224;2022-07-22T21:01:49;5.72;;;1.17;;
38318;SDS011;24121;53.536;10.224;2022-07-22T21:04:15;3.50;;;1.02;;
38318;SDS011;24121;53.536;10.224;2022-07-22T21:06:40;4.82;;;1.40;;
38318;SDS011;24121;53.536;10.224;2022-07-22T21:09:05;3.60;;;1.20;;
38318;SDS011;24121;53.536;10.224;2022-07-22T21:11:31;6.38;;;1.30;;
38318;SDS011;24121;53.536;10.224;2022-07-22T21:13:56;2.75;;;1.23;;
38318;SDS011;24121;53.536;10.224;2022-07-22T21:16:21;4.25;;;1.02;;
